createdAt,value
2023-04-07T00:00:39.683Z,100440.77
2023-04-07T00:03:21.888Z,100440.97
2023-04-07T00:05:51.037Z,100434.59
2023-04-07T00:08:20.110Z,100436.95
2023-04-07T00:10:49.165Z,100439.27
2023-04-07T00:13:18.498Z,100438.58
2023-04-07T00:15:47.482Z,100436.60
2023-04-07T00:18:16.398Z,100438.70
2023-04-07T00:20:45.366Z,100438.08
2023-04-07T00:23:14.592Z,100439.30
2023-04-07T00:25:43.632Z,100443.61
2023-04-07T00:28:12.927Z,100445.29
2023-04-07T00:30:41.922Z,100442.63
2023-04-07T00:33:10.973Z,100442.99
2023-04-07T00:35:39.913Z,100441.18
2023-04-07T00:38:08.954Z,100439.05
2023-04-07T00:40:37.877Z,100439.21
2023-04-07T00:43:06.724Z,100439.64
2023-04-07T00:45:36.409Z,100438.71
2023-04-07T00:48:06.492Z,100439.77
2023-04-07T00:50:35.599Z,100439.08
2023-04-07T00:53:04.619Z,100437.35
2023-04-07T00:55:33.724Z,100440.79
2023-04-07T00:58:04.568Z,100442.65
2023-04-07T01:00:37.657Z,100439.77
2023-04-07T01:03:13.838Z,100436.50
2023-04-07T01:05:51.218Z,100439.52
2023-04-07T01:08:25.023Z,100441.23
2023-04-07T01:10:57.194Z,100446.52
2023-04-07T01:13:32.140Z,100445.42
2023-04-07T01:16:05.259Z,100432.17
2023-04-07T01:18:36.938Z,100437.02
2023-04-07T01:21:11.162Z,100437.89
2023-04-07T01:24:01.425Z,100436.06
2023-04-07T01:26:32.903Z,100436.73
2023-04-07T01:29:27.363Z,100433.43
2023-04-07T01:32:00.237Z,100429.13
2023-04-07T01:34:33.144Z,100430.42
2023-04-07T01:37:03.981Z,100425.91
2023-04-07T01:39:34.178Z,100422.48
2023-04-07T01:42:06.867Z,100422.41
2023-04-07T01:44:36.720Z,100424.77
2023-04-07T01:47:06.099Z,100421.44
2023-04-07T01:49:37.118Z,100423.14
2023-04-07T01:52:07.718Z,100416.49
2023-04-07T01:54:37.398Z,100416.88
2023-04-07T01:57:06.334Z,100417.00
2023-04-07T01:59:35.210Z,100416.08
2023-04-07T02:02:04.315Z,100415.81
2023-04-07T02:04:38.508Z,100415.10
2023-04-07T02:07:12.381Z,100415.02
2023-04-07T02:09:43.160Z,100416.65
2023-04-07T02:12:15.890Z,100418.31
2023-04-07T02:14:45.197Z,100415.60
2023-04-07T02:17:16.428Z,100414.66
2023-04-07T02:19:47.675Z,100411.75
2023-04-07T02:22:17.845Z,100412.66
2023-04-07T02:24:46.841Z,100413.77
2023-04-07T02:27:15.767Z,100417.06
2023-04-07T02:29:44.694Z,100414.28
2023-04-07T02:32:13.642Z,100415.11
2023-04-07T02:34:42.800Z,100414.48
2023-04-07T02:37:11.836Z,100417.45
2023-04-07T02:39:41.002Z,100418.12
2023-04-07T02:42:10.030Z,100420.20
2023-04-07T02:44:38.943Z,100417.67
2023-04-07T02:47:08.190Z,100421.41
2023-04-07T02:49:37.207Z,100417.65
2023-04-07T02:52:06.436Z,100420.94
2023-04-07T02:54:35.982Z,100418.82
2023-04-07T02:57:05.261Z,100421.71
2023-04-07T02:59:34.194Z,100420.48
2023-04-07T03:02:03.377Z,100421.36
2023-04-07T03:04:32.862Z,100425.96
2023-04-07T03:07:01.732Z,100426.12
2023-04-07T03:09:30.844Z,100426.14
2023-04-07T03:11:59.810Z,100429.63
2023-04-07T03:14:28.826Z,100427.43
2023-04-07T03:16:57.976Z,100428.67
2023-04-07T03:19:27.227Z,100425.09
2023-04-07T03:21:56.136Z,100427.80
2023-04-07T03:24:25.725Z,100429.18
2023-04-07T03:26:55.573Z,100429.95
2023-04-07T03:29:24.538Z,100433.98
2023-04-07T03:31:53.510Z,100434.91
2023-04-07T03:34:22.491Z,100437.40
2023-04-07T03:36:51.499Z,100441.09
2023-04-07T03:39:20.814Z,100449.06
2023-04-07T03:41:49.819Z,100445.02
2023-04-07T03:44:18.814Z,100452.23
2023-04-07T03:46:49.946Z,100456.65
2023-04-07T03:49:18.809Z,100451.09
2023-04-07T03:51:47.946Z,100460.37
2023-04-07T03:54:16.879Z,100463.58
2023-04-07T03:56:45.899Z,100468.82
2023-04-07T03:59:14.933Z,100469.46
2023-04-07T04:01:43.895Z,100468.63
2023-04-07T04:04:13.033Z,100468.58
2023-04-07T04:06:42.205Z,100476.79
2023-04-07T04:09:11.116Z,100478.76
2023-04-07T04:11:40.090Z,100480.10
2023-04-07T04:14:09.246Z,100484.97
2023-04-07T04:16:38.188Z,100488.84
2023-04-07T04:19:07.107Z,100484.19
2023-04-07T04:21:36.029Z,100492.98
2023-04-07T04:24:06.063Z,100496.58
2023-04-07T04:26:34.991Z,100499.81
2023-04-07T04:29:03.952Z,100503.04
2023-04-07T04:31:33.087Z,100503.86
2023-04-07T04:34:01.968Z,100509.10
2023-04-07T04:36:31.054Z,100508.88
2023-04-07T04:39:00.001Z,100510.95
2023-04-07T04:41:28.919Z,100518.91
2023-04-07T04:43:58.076Z,100524.41
2023-04-07T04:46:26.990Z,100525.17
2023-04-07T04:48:57.351Z,100526.81
2023-04-07T04:51:26.644Z,100528.49
2023-04-07T04:53:55.797Z,100531.55
2023-04-07T04:56:25.141Z,100530.23
2023-04-07T04:58:54.091Z,100529.14
2023-04-07T05:01:23.006Z,100536.77
2023-04-07T05:03:52.461Z,100547.55
2023-04-07T05:06:21.568Z,100549.92
2023-04-07T05:08:50.659Z,100556.03
2023-04-07T05:11:21.051Z,100555.14
2023-04-07T05:13:50.617Z,100560.52
2023-04-07T05:16:19.895Z,100567.98
2023-04-07T05:18:49.000Z,100570.61
2023-04-07T05:21:19.698Z,100573.30
2023-04-07T05:23:48.690Z,100572.20
2023-04-07T05:26:17.774Z,100573.95
2023-04-07T05:28:46.975Z,100577.05
2023-04-07T05:31:15.908Z,100581.78
2023-04-07T05:33:44.965Z,100578.30
2023-04-07T05:36:13.986Z,100580.62
2023-04-07T05:38:43.067Z,100580.45
2023-04-07T05:41:12.343Z,100583.83
2023-04-07T05:43:41.327Z,100585.16
2023-04-07T05:46:10.345Z,100586.23
2023-04-07T05:48:39.339Z,100584.55
2023-04-07T05:51:08.395Z,100584.80
2023-04-07T05:53:37.526Z,100585.60
2023-04-07T05:56:06.947Z,100588.27
2023-04-07T05:58:36.113Z,100585.88
2023-04-07T06:01:05.243Z,100588.83
2023-04-07T06:03:34.404Z,100594.34
2023-04-07T06:06:03.752Z,100598.98
2023-04-07T06:08:32.638Z,100603.80
2023-04-07T06:11:01.636Z,100604.10
2023-04-07T06:13:30.528Z,100604.75
2023-04-07T06:15:59.592Z,100608.02
2023-04-07T06:18:28.461Z,100611.37
2023-04-07T06:20:57.429Z,100609.27
2023-04-07T06:23:26.632Z,100613.64
2023-04-07T06:25:55.944Z,100612.70
2023-04-07T06:28:24.893Z,100609.36
2023-04-07T06:30:54.008Z,100605.65
2023-04-07T06:33:25.198Z,100609.48
2023-04-07T06:35:54.285Z,100616.03
2023-04-07T06:38:23.403Z,100613.86
2023-04-07T06:40:52.816Z,100619.36
2023-04-07T06:43:21.778Z,100623.70
2023-04-07T06:45:50.813Z,100636.55
2023-04-07T06:48:19.874Z,100634.73
2023-04-07T06:50:50.416Z,100643.60
2023-04-07T06:53:19.943Z,100638.67
2023-04-07T06:55:48.932Z,100637.41
2023-04-07T06:58:18.361Z,100642.50
2023-04-07T07:00:47.432Z,100642.66
2023-04-07T07:03:16.690Z,100643.96
2023-04-07T07:05:45.765Z,100639.38
2023-04-07T07:08:14.901Z,100641.63
2023-04-07T07:10:44.103Z,100642.85
2023-04-07T07:13:12.994Z,100642.76
2023-04-07T07:15:42.623Z,100644.23
2023-04-07T07:18:11.716Z,100645.84
2023-04-07T07:20:40.832Z,100647.29
2023-04-07T07:23:09.800Z,100652.11
2023-04-07T07:25:38.839Z,100657.34
2023-04-07T07:28:08.761Z,100657.80
2023-04-07T07:30:41.105Z,100663.83
2023-04-07T07:33:10.283Z,100667.27
2023-04-07T07:35:39.856Z,100670.60
2023-04-07T07:38:08.849Z,100678.38
2023-04-07T07:40:37.777Z,100675.29
2023-04-07T07:43:06.791Z,100679.05
2023-04-07T07:45:35.916Z,100680.87
2023-04-07T07:48:04.987Z,100686.54
2023-04-07T07:50:33.806Z,100681.45
2023-04-07T07:53:02.847Z,100682.89
2023-04-07T07:55:31.757Z,100686.94
2023-04-07T07:58:00.875Z,100690.99
2023-04-07T08:00:30.308Z,100699.33
2023-04-07T08:02:59.691Z,100690.00
2023-04-07T08:05:28.731Z,100689.05
2023-04-07T08:07:57.800Z,100687.23
2023-04-07T08:10:26.709Z,100686.79
2023-04-07T08:12:55.789Z,100690.46
2023-04-07T08:15:25.070Z,100691.70
2023-04-07T08:17:55.542Z,100689.45
2023-04-07T08:20:25.433Z,100688.85
2023-04-07T08:22:54.405Z,100692.70
2023-04-07T08:25:23.453Z,100697.42
2023-04-07T08:27:52.519Z,100694.83
2023-04-07T08:30:21.987Z,100699.05
2023-04-07T08:32:50.969Z,100696.52
2023-04-07T08:35:20.397Z,100688.90
2023-04-07T08:37:49.903Z,100691.46
2023-04-07T08:40:18.823Z,100695.28
2023-04-07T08:42:49.222Z,100688.58
2023-04-07T08:45:19.501Z,100692.96
2023-04-07T08:47:56.156Z,100699.54
2023-04-07T08:50:27.213Z,100706.39
2023-04-07T08:52:58.475Z,100696.77
2023-04-07T08:55:27.721Z,100702.20
2023-04-07T08:57:58.665Z,100694.43
2023-04-07T09:00:29.888Z,100698.13
2023-04-07T09:03:02.900Z,100705.42
2023-04-07T09:05:32.603Z,100701.76
2023-04-07T09:08:02.487Z,100701.98
2023-04-07T09:10:31.525Z,100703.59
2023-04-07T09:13:00.565Z,100708.05
2023-04-07T09:15:32.528Z,100708.92
2023-04-07T09:18:01.516Z,100705.70
2023-04-07T09:20:57.476Z,100712.10
2023-04-07T09:23:30.838Z,100705.19
2023-04-07T09:26:01.258Z,100709.20
2023-04-07T09:28:43.802Z,100713.33
2023-04-07T09:31:12.820Z,100718.13
2023-04-07T09:33:41.823Z,100715.98
2023-04-07T09:36:11.856Z,100710.65
2023-04-07T09:38:42.105Z,100707.80
2023-04-07T09:41:13.125Z,100713.93
2023-04-07T09:43:44.094Z,100708.11
2023-04-07T09:46:15.316Z,100718.57
2023-04-07T09:48:45.311Z,100722.34
2023-04-07T09:51:16.144Z,100716.36
2023-04-07T09:53:47.845Z,100716.25
2023-04-07T09:56:18.330Z,100718.55
2023-04-07T09:58:50.985Z,100719.75
2023-04-07T10:01:21.052Z,100726.72
2023-04-07T10:03:50.855Z,100728.12
2023-04-07T10:06:21.303Z,100736.98
2023-04-07T10:08:50.520Z,100741.34
2023-04-07T10:11:20.325Z,100734.21
2023-04-07T10:13:49.932Z,100736.72
2023-04-07T10:16:19.885Z,100734.61
2023-04-07T10:18:51.291Z,100741.44
2023-04-07T10:21:20.499Z,100742.83
2023-04-07T10:23:56.925Z,100746.02
2023-04-07T10:26:30.678Z,100747.70
2023-04-07T10:29:06.050Z,100747.20
2023-04-07T10:31:35.630Z,100748.65
2023-04-07T10:34:05.323Z,100742.63
2023-04-07T10:36:34.849Z,100747.38
2023-04-07T10:39:23.615Z,100747.35
2023-04-07T10:41:52.749Z,100751.34
2023-04-07T10:44:47.695Z,100753.85
2023-04-07T10:47:17.057Z,100756.90
2023-04-07T10:50:19.980Z,100752.51
2023-04-07T10:52:51.952Z,100760.22
2023-04-07T10:55:32.897Z,100760.16
2023-04-07T10:58:22.049Z,100760.74
2023-04-07T11:01:29.008Z,100766.29
2023-04-07T11:04:01.809Z,100768.96
2023-04-07T11:06:31.322Z,100770.97
2023-04-07T11:09:00.208Z,100765.65
2023-04-07T11:11:41.903Z,100763.25
2023-04-07T11:14:11.124Z,100766.48
2023-04-07T11:16:45.138Z,100768.09
2023-04-07T11:19:14.039Z,100772.38
2023-04-07T11:21:42.885Z,100773.71
2023-04-07T11:24:31.427Z,100771.81
2023-04-07T11:27:00.940Z,100782.38
2023-04-07T11:29:30.663Z,100778.51
2023-04-07T11:32:01.774Z,100767.94
2023-04-07T11:34:32.047Z,100769.05
2023-04-07T11:37:20.417Z,100764.77
2023-04-07T11:39:55.009Z,100762.17
2023-04-07T11:42:34.270Z,100760.80
2023-04-07T11:45:04.653Z,100762.14
2023-04-07T11:47:38.558Z,100760.15
2023-04-07T11:50:09.328Z,100763.66
2023-04-07T11:52:45.308Z,100760.38
2023-04-07T11:55:21.987Z,100764.48
2023-04-07T11:57:51.798Z,100758.96
2023-04-07T12:00:21.751Z,100760.91
2023-04-07T12:02:50.832Z,100763.45
2023-04-07T12:05:20.479Z,100758.67
2023-04-07T12:07:55.929Z,100765.91
2023-04-07T12:10:26.390Z,100769.90
2023-04-07T12:12:56.986Z,100774.09
2023-04-07T12:15:28.054Z,100776.40
2023-04-07T12:17:57.140Z,100774.70
2023-04-07T12:20:27.026Z,100777.17
2023-04-07T12:22:56.057Z,100771.98
2023-04-07T12:25:25.232Z,100775.89
2023-04-07T12:27:54.200Z,100769.03
2023-04-07T12:30:23.313Z,100774.66
2023-04-07T12:32:53.064Z,100773.09
2023-04-07T12:35:22.323Z,100781.59
2023-04-07T12:37:52.523Z,100778.11
2023-04-07T12:40:21.742Z,100780.09
2023-04-07T12:42:50.787Z,100788.55
2023-04-07T12:45:19.920Z,100779.73
2023-04-07T12:47:48.924Z,100788.31
2023-04-07T12:50:18.109Z,100791.62
2023-04-07T12:52:47.911Z,100790.23
2023-04-07T12:55:16.957Z,100795.36
2023-04-07T12:57:46.827Z,100796.58
2023-04-07T13:00:16.281Z,100791.54
2023-04-07T13:02:45.379Z,100804.02
2023-04-07T13:05:14.509Z,100806.70
2023-04-07T13:07:43.350Z,100805.60
2023-04-07T13:10:12.252Z,100801.20
2023-04-07T13:12:41.846Z,100812.19
2023-04-07T13:15:11.058Z,100808.54
2023-04-07T13:17:40.126Z,100809.83
2023-04-07T13:20:11.049Z,100810.66
2023-04-07T13:22:49.324Z,100812.06
2023-04-07T13:25:24.668Z,100819.21
2023-04-07T13:27:53.673Z,100815.42
2023-04-07T13:30:23.016Z,100819.71
2023-04-07T13:32:52.757Z,100817.50
2023-04-07T13:35:21.976Z,100821.42
2023-04-07T13:37:50.990Z,100820.33
2023-04-07T13:40:20.316Z,100825.20
2023-04-07T13:42:49.184Z,100831.30
2023-04-07T13:45:18.267Z,100833.84
2023-04-07T13:47:47.210Z,100835.67
2023-04-07T13:50:16.271Z,100831.05
2023-04-07T13:52:47.720Z,100836.61
2023-04-07T13:55:19.692Z,100837.10
2023-04-07T13:57:48.546Z,100840.81
2023-04-07T14:00:19.079Z,100847.89
2023-04-07T14:02:49.188Z,100849.52
2023-04-07T14:05:18.469Z,100858.52
2023-04-07T14:07:48.014Z,100860.98
2023-04-07T14:10:17.156Z,100866.63
2023-04-07T14:12:46.551Z,100863.81
2023-04-07T14:15:17.051Z,100863.47
2023-04-07T14:17:47.657Z,100872.48
2023-04-07T14:20:16.928Z,100873.08
2023-04-07T14:22:45.902Z,100873.43
2023-04-07T14:25:15.005Z,100877.59
2023-04-07T14:27:44.256Z,100879.03
2023-04-07T14:30:14.836Z,100874.95
2023-04-07T14:32:43.851Z,100878.92
2023-04-07T14:35:12.920Z,100878.37
2023-04-07T14:37:41.886Z,100874.02
2023-04-07T14:40:11.992Z,100886.69
2023-04-07T14:42:41.163Z,100888.65
2023-04-07T14:45:12.272Z,100893.02
2023-04-07T14:47:41.370Z,100895.88
2023-04-07T14:50:12.020Z,100898.67
2023-04-07T14:52:40.981Z,100901.79
2023-04-07T14:55:10.437Z,100898.92
2023-04-07T14:57:39.705Z,100910.72
2023-04-07T15:00:11.330Z,100910.08
2023-04-07T15:02:40.520Z,100913.71
2023-04-07T15:05:11.045Z,100910.00
2023-04-07T15:07:40.099Z,100906.63
2023-04-07T15:10:10.824Z,100910.42
2023-04-07T15:12:39.669Z,100911.98
2023-04-07T15:15:09.700Z,100913.56
2023-04-07T15:17:44.619Z,100912.56
2023-04-07T15:20:14.124Z,100918.27
2023-04-07T15:22:43.119Z,100914.02
2023-04-07T15:25:12.187Z,100918.65
2023-04-07T15:27:40.983Z,100923.83
2023-04-07T15:30:11.545Z,100927.54
2023-04-07T15:32:40.595Z,100931.20
2023-04-07T15:35:10.252Z,100930.71
2023-04-07T15:37:39.300Z,100936.98
2023-04-07T15:40:10.473Z,100940.09
2023-04-07T15:42:41.217Z,100939.38
2023-04-07T15:45:12.383Z,100940.84
2023-04-07T15:47:41.318Z,100947.23
2023-04-07T15:50:11.728Z,100946.27
2023-04-07T15:52:40.804Z,100948.69
2023-04-07T15:55:11.413Z,100950.39
2023-04-07T15:57:40.360Z,100949.69
2023-04-07T16:00:11.156Z,100951.20
2023-04-07T16:02:40.252Z,100952.01
2023-04-07T16:05:09.958Z,100952.64
2023-04-07T16:07:39.050Z,100952.10
2023-04-07T16:10:11.764Z,100953.60
2023-04-07T16:12:41.238Z,100961.75
2023-04-07T16:15:11.244Z,100964.73
2023-04-07T16:17:42.006Z,100966.72
2023-04-07T16:20:14.076Z,100972.36
2023-04-07T16:22:45.120Z,100976.23
2023-04-07T16:25:15.034Z,100978.38
2023-04-07T16:27:44.590Z,100981.95
2023-04-07T16:30:15.723Z,100981.17
2023-04-07T16:32:46.200Z,100987.23
2023-04-07T16:35:16.167Z,100988.34
2023-04-07T16:37:46.128Z,100992.61
2023-04-07T16:40:15.792Z,100994.14
2023-04-07T16:42:46.170Z,100996.48
2023-04-07T16:45:15.420Z,100997.45
2023-04-07T16:47:44.704Z,101000.22
2023-04-07T16:50:13.751Z,100999.63
2023-04-07T16:52:42.693Z,101005.23
2023-04-07T16:55:11.915Z,101009.98
2023-04-07T16:57:40.912Z,101007.36
2023-04-07T17:00:11.958Z,101011.93
2023-04-07T17:02:41.128Z,101012.64
2023-04-07T17:05:11.024Z,101012.96
2023-04-07T17:07:40.034Z,101018.26
2023-04-07T17:10:10.963Z,101022.37
2023-04-07T17:12:39.988Z,101026.14
2023-04-07T17:15:10.522Z,101029.98
2023-04-07T17:17:39.762Z,101032.61
2023-04-07T17:20:10.948Z,101034.14
2023-04-07T17:22:39.881Z,101040.33
2023-04-07T17:25:11.226Z,101042.58
2023-04-07T17:27:40.517Z,101047.85
2023-04-07T17:30:11.411Z,101048.20
2023-04-07T17:32:40.911Z,101052.99
2023-04-07T17:35:10.549Z,101054.05
2023-04-07T17:37:39.464Z,101057.77
2023-04-07T17:40:10.855Z,101059.55
2023-04-07T17:42:40.617Z,101059.34
2023-04-07T17:45:11.356Z,101063.23
2023-04-07T17:47:40.743Z,101065.38
2023-04-07T17:50:11.545Z,101068.21
2023-04-07T17:52:40.588Z,101067.30
2023-04-07T17:55:11.800Z,101062.19
2023-04-07T17:57:41.457Z,101068.49
2023-04-07T18:00:11.905Z,101070.59
2023-04-07T18:02:41.084Z,101075.20
2023-04-07T18:05:13.835Z,101078.42
2023-04-07T18:07:42.761Z,101080.75
2023-04-07T18:10:12.550Z,101083.38
2023-04-07T18:12:41.498Z,101087.95
2023-04-07T18:15:11.472Z,101091.04
2023-04-07T18:17:41.974Z,101094.08
2023-04-07T18:20:12.578Z,101092.49
2023-04-07T18:22:41.915Z,101099.45
2023-04-07T18:25:11.747Z,101098.45
2023-04-07T18:27:40.796Z,101106.11
2023-04-07T18:30:11.927Z,101106.55
2023-04-07T18:32:40.933Z,101111.04
2023-04-07T18:35:10.535Z,101111.42
2023-04-07T18:37:39.448Z,101111.09
2023-04-07T18:40:10.360Z,101122.30
2023-04-07T18:42:39.415Z,101125.39
2023-04-07T18:45:10.312Z,101126.67
2023-04-07T18:47:39.357Z,101127.36
2023-04-07T18:50:10.217Z,101125.05
2023-04-07T18:52:39.241Z,101125.73
2023-04-07T18:55:10.390Z,101126.95
2023-04-07T18:57:39.706Z,101128.83
2023-04-07T19:00:10.499Z,101138.92
2023-04-07T19:02:43.656Z,101136.80
2023-04-07T19:05:13.535Z,101134.52
2023-04-07T19:07:42.439Z,101137.88
2023-04-07T19:10:11.418Z,101140.34
2023-04-07T19:12:40.725Z,101143.90
2023-04-07T19:15:11.381Z,101146.70
2023-04-07T19:17:40.915Z,101144.77
2023-04-07T19:20:11.095Z,101147.73
2023-04-07T19:22:40.114Z,101150.80
2023-04-07T19:25:10.274Z,101153.42
2023-04-07T19:27:39.405Z,101153.81
2023-04-07T19:30:10.856Z,101155.11
2023-04-07T19:32:39.922Z,101156.97
2023-04-07T19:35:10.654Z,101154.93
2023-04-07T19:37:39.861Z,101152.89
2023-04-07T19:40:10.416Z,101155.98
2023-04-07T19:42:39.464Z,101155.67
2023-04-07T19:45:10.194Z,101156.55
2023-04-07T19:47:39.326Z,101152.05
2023-04-07T19:50:11.180Z,101162.94
2023-04-07T19:52:42.533Z,101161.55
2023-04-07T19:55:13.457Z,101156.55
2023-04-07T19:57:42.570Z,101165.66
2023-04-07T20:00:13.087Z,101163.60
2023-04-07T20:02:42.370Z,101162.80
2023-04-07T20:05:11.471Z,101165.42
2023-04-07T20:07:40.553Z,101164.38
2023-04-07T20:10:10.678Z,101166.73
2023-04-07T20:12:39.570Z,101168.88
2023-04-07T20:15:10.765Z,101167.98
2023-04-07T20:17:39.914Z,101165.83
2023-04-07T20:20:10.785Z,101165.00
2023-04-07T20:22:41.996Z,101164.18
2023-04-07T20:25:11.452Z,101160.91
2023-04-07T20:27:40.437Z,101168.91
2023-04-07T20:30:10.552Z,101170.64
2023-04-07T20:32:39.670Z,101171.02
2023-04-07T20:35:11.232Z,101174.69
2023-04-07T20:37:40.339Z,101177.39
2023-04-07T20:40:11.653Z,101178.20
2023-04-07T20:42:40.590Z,101178.60
2023-04-07T20:45:11.879Z,101180.44
2023-04-07T20:47:40.947Z,101173.69
2023-04-07T20:50:10.887Z,101176.86
2023-04-07T20:52:42.836Z,101173.44
2023-04-07T20:55:12.254Z,101175.03
2023-04-07T20:57:41.465Z,101175.16
2023-04-07T21:00:11.512Z,101177.85
2023-04-07T21:02:41.263Z,101178.33
2023-04-07T21:05:11.100Z,101178.70
2023-04-07T21:07:39.985Z,101178.00
2023-04-07T21:10:11.676Z,101176.82
2023-04-07T21:12:41.142Z,101178.05
2023-04-07T21:15:11.326Z,101171.49
2023-04-07T21:17:40.522Z,101168.41
2023-04-07T21:20:11.536Z,101169.69
2023-04-07T21:22:40.507Z,101171.23
2023-04-07T21:25:10.594Z,101166.42
2023-04-07T21:27:39.862Z,101165.84
2023-04-07T21:30:13.227Z,101167.05
2023-04-07T21:32:44.856Z,101166.80
2023-04-07T21:35:13.956Z,101167.61
2023-04-07T21:37:42.990Z,101174.10
2023-04-07T21:40:12.784Z,101174.45
2023-04-07T21:42:41.932Z,101174.47
2023-04-07T21:45:12.634Z,101176.58
2023-04-07T21:47:41.808Z,101175.59
2023-04-07T21:50:12.961Z,101173.84
2023-04-07T21:52:42.061Z,101175.31
2023-04-07T21:55:11.420Z,101178.94
2023-04-07T21:57:40.400Z,101181.08
2023-04-07T22:00:12.162Z,101176.10
2023-04-07T22:02:41.184Z,101174.06
2023-04-07T22:05:11.149Z,101175.63
2023-04-07T22:07:40.189Z,101179.02
2023-04-07T22:10:10.997Z,101180.27
2023-04-07T22:12:40.397Z,101175.14
2023-04-07T22:15:12.560Z,101172.35
2023-04-07T22:17:41.495Z,101180.54
2023-04-07T22:20:12.274Z,101181.59
2023-04-07T22:22:42.553Z,101185.14
2023-04-07T22:25:11.492Z,101184.02
2023-04-07T22:27:40.610Z,101189.75
2023-04-07T22:30:11.753Z,101192.80
2023-04-07T22:32:40.954Z,101190.97
2023-04-07T22:35:10.681Z,101189.70
2023-04-07T22:37:39.688Z,101191.85
2023-04-07T22:40:10.500Z,101196.21
2023-04-07T22:42:39.795Z,101193.65
2023-04-07T22:45:10.422Z,101194.55
2023-04-07T22:47:40.116Z,101193.51
2023-04-07T22:50:11.178Z,101195.08
2023-04-07T22:52:40.143Z,101196.42
2023-04-07T22:55:10.508Z,101198.52
2023-04-07T22:57:39.592Z,101198.73
2023-04-07T23:00:11.925Z,101196.48
2023-04-07T23:02:41.896Z,101195.67
2023-04-07T23:05:11.326Z,101198.41
2023-04-07T23:07:40.491Z,101198.73
2023-04-07T23:10:10.785Z,101200.91
2023-04-07T23:12:39.728Z,101203.50
2023-04-07T23:15:10.578Z,101200.90
2023-04-07T23:17:39.844Z,101203.48
2023-04-07T23:20:11.147Z,101200.25
2023-04-07T23:22:40.589Z,101198.59
2023-04-07T23:25:10.550Z,101197.02
2023-04-07T23:27:39.857Z,101200.83
2023-04-07T23:30:11.075Z,101197.41
2023-04-07T23:32:40.171Z,101195.68
2023-04-07T23:35:10.884Z,101199.35
2023-04-07T23:37:39.950Z,101198.04
2023-04-07T23:40:11.909Z,101197.35
2023-04-07T23:42:41.388Z,101194.15
2023-04-07T23:45:11.596Z,101196.43
2023-04-07T23:47:40.688Z,101198.19
2023-04-07T23:50:11.365Z,101201.02
2023-04-07T23:52:40.408Z,101201.27
2023-04-07T23:55:10.586Z,101200.55
2023-04-07T23:57:39.448Z,101206.58
